createdAt,value
2019-02-21T00:02:13.449Z,15.33
2019-02-21T00:04:41.908Z,15.33
2019-02-21T00:07:10.356Z,14.33
2019-02-21T00:09:38.744Z,14.77
2019-02-21T00:12:07.124Z,13.70
2019-02-21T00:14:35.519Z,15.27
2019-02-21T00:17:03.963Z,14.90
2019-02-21T00:19:32.351Z,14.97
2019-02-21T00:22:00.735Z,13.70
2019-02-21T00:24:29.111Z,14.93
2019-02-21T00:26:57.496Z,15.40
2019-02-21T00:29:25.872Z,15.47
2019-02-21T00:31:54.260Z,13.07
2019-02-21T00:34:22.636Z,14.83
2019-02-21T00:36:51.093Z,15.63
2019-02-21T00:39:19.478Z,15.70
2019-02-21T00:41:47.856Z,15.20
2019-02-21T00:44:16.244Z,15.20
2019-02-21T00:46:44.624Z,15.63
2019-02-21T00:49:12.996Z,16.07
2019-02-21T00:51:41.392Z,15.27
2019-02-21T00:54:09.803Z,15.33
2019-02-21T00:56:38.232Z,14.27
2019-02-21T00:59:06.611Z,14.27
2019-02-21T01:01:35.004Z,14.47
2019-02-21T01:04:03.380Z,14.90
2019-02-21T01:06:31.759Z,16.03
2019-02-21T01:09:00.152Z,14.87
2019-02-21T01:11:28.539Z,15.13
2019-02-21T01:13:56.919Z,14.63
2019-02-21T01:16:25.291Z,15.47
2019-02-21T01:18:53.675Z,15.40
2019-02-21T01:21:22.053Z,14.90
2019-02-21T01:23:50.448Z,15.80
2019-02-21T01:26:18.822Z,15.43
2019-02-21T01:28:47.196Z,15.43
2019-02-21T01:31:15.583Z,13.67
2019-02-21T01:33:43.963Z,13.77
2019-02-21T01:36:12.360Z,14.50
2019-02-21T01:38:40.739Z,14.00
2019-02-21T01:41:09.127Z,13.73
2019-02-21T01:43:37.503Z,15.33
2019-02-21T01:46:05.900Z,15.03
2019-02-21T01:48:34.273Z,14.03
2019-02-21T01:51:02.645Z,12.80
2019-02-21T01:53:31.032Z,13.77
2019-02-21T01:55:59.424Z,14.77
2019-02-21T01:58:27.819Z,15.33
2019-02-21T02:00:56.188Z,13.37
2019-02-21T02:03:24.564Z,14.47
2019-02-21T02:05:53.016Z,13.80
2019-02-21T02:08:21.432Z,14.33
2019-02-21T02:10:49.807Z,15.50
2019-02-21T02:13:24.632Z,15.10
2019-02-21T02:15:48.300Z,15.17
2019-02-21T02:18:16.679Z,15.07
2019-02-21T02:20:45.067Z,14.83
2019-02-21T02:23:13.448Z,15.97
2019-02-21T02:25:41.835Z,14.20
2019-02-21T02:28:10.226Z,15.00
2019-02-21T02:30:57.936Z,14.80
2019-02-21T02:33:26.328Z,14.10
2019-02-21T02:35:54.719Z,15.37
2019-02-21T02:38:23.085Z,16.17
2019-02-21T02:40:51.477Z,17.10
2019-02-21T02:43:20.025Z,16.20
2019-02-21T02:45:48.420Z,15.37
2019-02-21T02:48:16.800Z,16.40
2019-02-21T02:50:45.189Z,16.70
2019-02-21T02:53:13.575Z,16.57
2019-02-21T02:55:41.983Z,16.77
2019-02-21T02:58:10.351Z,16.97
2019-02-21T03:00:58.075Z,17.53
2019-02-21T03:03:26.688Z,17.30
2019-02-21T03:05:55.082Z,18.43
2019-02-21T03:08:23.455Z,18.17
2019-02-21T03:10:51.844Z,19.90
2019-02-21T03:13:20.237Z,20.50
2019-02-21T03:15:48.611Z,21.03
2019-02-21T03:18:16.992Z,19.73
2019-02-21T03:20:45.396Z,20.37
2019-02-21T03:23:13.777Z,18.80
2019-02-21T03:25:42.161Z,20.10
2019-02-21T03:28:10.551Z,19.33
2019-02-21T03:30:38.942Z,20.10
2019-02-21T03:33:07.335Z,20.13
2019-02-21T03:35:35.716Z,21.30
2019-02-21T03:38:04.113Z,22.83
2019-02-21T03:40:32.488Z,20.93
2019-02-21T03:43:00.867Z,21.97
2019-02-21T03:45:29.262Z,21.80
2019-02-21T03:47:57.639Z,23.97
2019-02-21T03:50:26.027Z,20.17
2019-02-21T03:52:54.407Z,22.17
2019-02-21T03:55:23.037Z,23.57
2019-02-21T03:57:51.423Z,22.73
2019-02-21T04:00:19.825Z,20.20
2019-02-21T04:02:48.268Z,23.83
2019-02-21T04:05:16.893Z,23.73
2019-02-21T04:07:45.267Z,22.87
2019-02-21T04:10:13.644Z,21.67
2019-02-21T04:12:42.037Z,24.43
2019-02-21T04:15:12.145Z,21.70
2019-02-21T04:17:40.527Z,25.30
2019-02-21T04:20:09.744Z,26.50
2019-02-21T04:22:38.139Z,23.07
2019-02-21T04:25:07.088Z,23.17
2019-02-21T04:27:35.472Z,27.87
2019-02-21T04:30:04.298Z,26.70
2019-02-21T04:32:32.671Z,24.30
2019-02-21T04:35:01.061Z,26.53
2019-02-21T04:37:29.455Z,27.57
2019-02-21T04:39:58.777Z,28.37
2019-02-21T04:42:27.151Z,27.70
2019-02-21T04:44:55.537Z,26.63
2019-02-21T04:47:23.914Z,27.60
2019-02-21T04:49:52.300Z,30.13
2019-02-21T04:52:20.689Z,27.00
2019-02-21T04:54:49.085Z,28.17
2019-02-21T04:57:17.460Z,28.13
2019-02-21T04:59:45.847Z,27.90
2019-02-21T05:02:14.243Z,27.23
2019-02-21T05:04:42.643Z,27.57
2019-02-21T05:07:11.025Z,24.67
2019-02-21T05:09:39.408Z,25.90
2019-02-21T05:12:07.802Z,27.13
2019-02-21T05:14:36.192Z,26.90
2019-02-21T05:17:04.654Z,25.90
2019-02-21T05:19:33.037Z,25.07
2019-02-21T05:22:01.435Z,25.80
2019-02-21T05:24:29.824Z,24.87
2019-02-21T05:26:59.860Z,25.57
2019-02-21T05:29:28.244Z,24.37
2019-02-21T05:32:04.297Z,27.13
2019-02-21T05:34:34.296Z,26.07
2019-02-21T05:37:20.585Z,27.70
2019-02-21T05:39:53.580Z,23.00
2019-02-21T05:42:35.555Z,26.97
2019-02-21T05:45:14.983Z,24.80
2019-02-21T05:47:50.671Z,29.00
2019-02-21T05:50:23.649Z,28.63
2019-02-21T05:52:59.672Z,27.70
2019-02-21T05:55:29.696Z,28.57
2019-02-21T05:58:02.866Z,28.13
2019-02-21T06:00:36.934Z,28.10
2019-02-21T06:03:10.269Z,28.73
2019-02-21T06:05:45.963Z,25.40
2019-02-21T06:08:15.995Z,26.77
2019-02-21T06:10:46.015Z,27.27
2019-02-21T06:13:34.067Z,26.63
2019-02-21T06:16:04.103Z,27.77
2019-02-21T06:18:36.703Z,25.50
2019-02-21T06:21:06.729Z,23.30
2019-02-21T06:23:49.358Z,26.27
2019-02-21T06:26:25.340Z,24.40
2019-02-21T06:29:09.810Z,28.77
2019-02-21T06:31:37.452Z,25.03
2019-02-21T06:34:05.830Z,27.00
2019-02-21T06:36:34.215Z,27.23
2019-02-21T06:39:02.595Z,25.07
2019-02-21T06:41:30.991Z,24.97
2019-02-21T06:43:59.368Z,27.57
2019-02-21T06:46:27.745Z,25.40
2019-02-21T06:48:56.136Z,29.23
2019-02-21T06:51:24.515Z,29.57
2019-02-21T06:53:53.270Z,29.90
2019-02-21T06:56:21.760Z,28.87
2019-02-21T06:58:50.140Z,28.07
2019-02-21T07:01:26.707Z,28.73
2019-02-21T07:03:48.631Z,26.30
2019-02-21T07:06:19.095Z,24.43
2019-02-21T07:08:47.120Z,25.20
2019-02-21T07:11:15.505Z,25.53
2019-02-21T07:13:43.896Z,27.43
2019-02-21T07:16:13.158Z,24.70
2019-02-21T07:18:41.788Z,26.27
2019-02-21T07:21:10.208Z,24.07
2019-02-21T07:23:43.560Z,25.50
2019-02-21T07:26:08.704Z,22.67
2019-02-21T07:28:37.083Z,25.97
2019-02-21T07:31:05.472Z,26.33
2019-02-21T07:33:33.855Z,26.40
2019-02-21T07:36:02.260Z,23.70
2019-02-21T07:38:30.644Z,25.37
2019-02-21T07:40:59.158Z,24.03
2019-02-21T07:43:27.596Z,26.53
2019-02-21T07:45:55.977Z,25.37
2019-02-21T07:48:24.385Z,24.50
2019-02-21T07:50:52.757Z,23.90
2019-02-21T07:53:21.133Z,23.87
2019-02-21T07:55:49.522Z,23.23
2019-02-21T07:58:17.912Z,23.00
2019-02-21T08:00:46.296Z,16.00
2019-02-21T08:03:14.672Z,19.53
2019-02-21T08:05:43.083Z,23.47
2019-02-21T08:08:11.472Z,25.07
2019-02-21T08:10:39.863Z,24.03
2019-02-21T08:13:08.248Z,24.23
2019-02-21T08:15:36.636Z,22.73
2019-02-21T08:18:05.031Z,23.90
2019-02-21T08:20:37.078Z,24.30
2019-02-21T08:23:03.574Z,22.27
2019-02-21T08:25:31.995Z,21.17
2019-02-21T08:28:00.375Z,20.50
2019-02-21T08:30:29.299Z,21.90
2019-02-21T08:33:11.863Z,22.10
2019-02-21T08:35:40.250Z,24.10
2019-02-21T08:38:08.628Z,24.67
2019-02-21T08:40:37.023Z,24.60
2019-02-21T08:43:05.408Z,22.57
2019-02-21T08:45:33.792Z,20.43
2019-02-21T08:48:02.204Z,20.70
2019-02-21T08:50:30.596Z,21.63
2019-02-21T08:53:01.046Z,20.77
2019-02-21T08:55:29.075Z,22.50
2019-02-21T08:57:57.479Z,21.63
2019-02-21T09:00:25.863Z,24.07
2019-02-21T09:02:54.251Z,23.63
2019-02-21T09:05:22.715Z,19.70
2019-02-21T09:07:51.096Z,16.00
2019-02-21T09:10:19.509Z,22.17
2019-02-21T09:12:48.704Z,20.87
2019-02-21T09:15:17.695Z,20.40
2019-02-21T09:17:46.091Z,23.10
2019-02-21T09:20:14.554Z,20.07
2019-02-21T09:22:43.016Z,18.63
2019-02-21T09:25:13.146Z,20.47
2019-02-21T09:27:41.544Z,17.00
2019-02-21T09:30:12.831Z,20.77
2019-02-21T09:32:42.017Z,21.67
2019-02-21T09:35:10.571Z,20.20
2019-02-21T09:37:39.119Z,20.03
2019-02-21T09:40:28.489Z,22.33
2019-02-21T09:42:56.948Z,20.83
2019-02-21T09:45:25.341Z,20.13
2019-02-21T09:47:53.728Z,19.07
2019-02-21T09:50:22.116Z,20.27
2019-02-21T09:52:50.497Z,20.67
2019-02-21T09:55:18.970Z,21.37
2019-02-21T09:57:47.349Z,22.13
2019-02-21T10:00:20.180Z,17.83
2019-02-21T10:02:48.577Z,21.17
2019-02-21T10:05:16.955Z,16.83
2019-02-21T10:07:45.333Z,17.30
2019-02-21T10:10:15.659Z,19.07
2019-02-21T10:12:44.055Z,19.13
2019-02-21T10:15:14.299Z,12.57
2019-02-21T10:17:42.862Z,21.80
2019-02-21T10:20:16.731Z,21.80
2019-02-21T10:22:45.116Z,23.70
2019-02-21T10:25:23.142Z,20.77
2019-02-21T10:27:51.763Z,21.87
2019-02-21T10:30:22.307Z,20.90
2019-02-21T10:32:50.687Z,17.90
2019-02-21T10:35:19.071Z,20.83
2019-02-21T10:37:47.471Z,21.03
2019-02-21T10:40:16.403Z,21.53
2019-02-21T10:42:44.794Z,20.17
2019-02-21T10:45:18.487Z,20.80
2019-02-21T10:47:46.947Z,21.30
2019-02-21T10:50:19.513Z,21.10
2019-02-21T10:52:48.332Z,18.83
2019-02-21T10:55:17.467Z,21.47
2019-02-21T10:57:45.920Z,21.87
2019-02-21T11:00:19.883Z,16.53
2019-02-21T11:02:48.264Z,22.70
2019-02-21T11:05:16.656Z,20.20
2019-02-21T11:07:45.116Z,20.17
2019-02-21T11:10:15.799Z,19.00
2019-02-21T11:12:44.192Z,20.93
2019-02-21T11:15:15.116Z,18.30
2019-02-21T11:17:43.496Z,22.73
2019-02-21T11:20:14.788Z,18.80
2019-02-21T11:22:43.275Z,20.40
2019-02-21T11:25:12.325Z,21.53
2019-02-21T11:27:40.703Z,19.47
2019-02-21T11:30:12.099Z,15.43
2019-02-21T11:32:40.487Z,20.07
2019-02-21T11:35:08.956Z,17.93
2019-02-21T11:37:43.285Z,20.63
2019-02-21T11:40:13.662Z,17.97
2019-02-21T11:42:42.079Z,18.77
2019-02-21T11:45:13.344Z,19.20
2019-02-21T11:47:41.740Z,14.70
2019-02-21T11:50:12.363Z,16.30
2019-02-21T11:52:40.743Z,16.77
2019-02-21T11:55:11.843Z,18.63
2019-02-21T11:57:40.225Z,16.53
2019-02-21T12:00:13.093Z,18.93
2019-02-21T12:02:41.489Z,17.20
2019-02-21T12:05:17.060Z,17.00
2019-02-21T12:07:39.992Z,15.40
2019-02-21T12:10:10.721Z,17.70
2019-02-21T12:12:39.112Z,17.97
2019-02-21T12:15:10.133Z,18.47
2019-02-21T12:17:38.603Z,16.53
2019-02-21T12:20:12.436Z,14.87
2019-02-21T12:22:40.836Z,12.53
2019-02-21T12:25:11.455Z,14.50
2019-02-21T12:27:39.866Z,14.03
2019-02-21T12:30:11.079Z,18.03
2019-02-21T12:32:39.464Z,14.57
2019-02-21T12:35:08.324Z,11.63
2019-02-21T12:37:36.707Z,16.20
2019-02-21T12:40:08.403Z,15.30
2019-02-21T12:42:36.791Z,14.77
2019-02-21T12:45:08.269Z,17.10
2019-02-21T12:47:36.650Z,19.60
2019-02-21T12:50:07.287Z,13.93
2019-02-21T12:52:35.668Z,17.70
2019-02-21T12:55:05.503Z,18.57
2019-02-21T12:57:33.880Z,15.80
2019-02-21T13:00:02.345Z,19.00
2019-02-21T13:02:30.735Z,15.77
2019-02-21T13:04:59.120Z,17.30
2019-02-21T13:07:27.508Z,16.73
2019-02-21T13:09:55.887Z,16.87
2019-02-21T13:12:24.275Z,18.47
2019-02-21T13:14:52.657Z,11.20
2019-02-21T13:17:21.049Z,16.03
2019-02-21T13:19:49.432Z,16.77
2019-02-21T13:22:17.830Z,14.17
2019-02-21T13:24:46.277Z,14.53
2019-02-21T13:27:14.647Z,15.23
2019-02-21T13:29:43.028Z,17.93
2019-02-21T13:32:11.416Z,15.37
2019-02-21T13:34:39.796Z,17.80
2019-02-21T13:37:08.189Z,17.03
2019-02-21T13:39:36.590Z,17.20
2019-02-21T13:42:04.963Z,15.20
2019-02-21T13:44:33.360Z,16.63
2019-02-21T13:47:01.744Z,16.40
2019-02-21T13:49:30.127Z,16.33
2019-02-21T13:51:58.519Z,14.57
2019-02-21T13:54:26.899Z,16.63
2019-02-21T13:56:55.295Z,18.23
2019-02-21T13:59:23.676Z,16.03
2019-02-21T14:01:52.074Z,19.60
2019-02-21T14:04:20.452Z,18.03
2019-02-21T14:06:48.847Z,16.67
2019-02-21T14:09:17.238Z,15.10
2019-02-21T14:11:45.626Z,17.47
2019-02-21T14:14:14.028Z,15.27
2019-02-21T14:16:46.487Z,17.00
2019-02-21T14:19:12.529Z,14.67
2019-02-21T14:21:43.543Z,15.07
2019-02-21T14:24:11.037Z,16.43
2019-02-21T14:26:39.420Z,14.00
2019-02-21T14:29:07.816Z,16.33
2019-02-21T14:31:36.214Z,11.90
2019-02-21T14:34:04.593Z,16.20
2019-02-21T14:36:33.014Z,14.47
2019-02-21T14:39:01.379Z,15.90
2019-02-21T14:41:29.768Z,15.50
2019-02-21T14:44:00.422Z,14.40
2019-02-21T14:46:28.276Z,13.73
2019-02-21T14:48:56.657Z,16.03
2019-02-21T14:51:25.035Z,13.80
2019-02-21T14:53:53.424Z,15.67
2019-02-21T14:56:21.821Z,17.07
2019-02-21T14:58:50.200Z,14.87
2019-02-21T15:01:18.588Z,18.10
2019-02-21T15:03:46.976Z,17.57
2019-02-21T15:06:26.451Z,17.87
2019-02-21T15:08:45.465Z,19.23
2019-02-21T15:11:14.735Z,17.27
2019-02-21T15:13:43.116Z,18.63
2019-02-21T15:16:11.499Z,18.43
2019-02-21T15:18:39.892Z,20.23
2019-02-21T15:21:08.279Z,19.23
2019-02-21T15:23:37.172Z,20.10
2019-02-21T15:26:05.740Z,18.93
2019-02-21T15:28:34.132Z,20.03
2019-02-21T15:31:02.527Z,18.33
2019-02-21T15:33:30.911Z,18.97
2019-02-21T15:35:59.299Z,16.67
2019-02-21T15:38:27.688Z,16.97
2019-02-21T15:40:56.084Z,19.03
2019-02-21T15:43:24.468Z,18.93
2019-02-21T15:45:52.878Z,20.17
2019-02-21T15:48:21.306Z,19.93
2019-02-21T15:50:49.716Z,18.37
2019-02-21T15:53:18.091Z,19.33
2019-02-21T15:55:46.486Z,18.33
2019-02-21T15:58:14.878Z,19.07
2019-02-21T16:00:43.259Z,19.13
2019-02-21T16:03:11.648Z,19.90
2019-02-21T16:05:40.056Z,20.30
2019-02-21T16:08:08.416Z,19.87
2019-02-21T16:10:39.666Z,21.47
2019-02-21T16:13:07.050Z,21.83
2019-02-21T16:15:35.500Z,20.10
2019-02-21T16:18:03.885Z,21.90
2019-02-21T16:20:32.279Z,20.93
2019-02-21T16:23:00.659Z,21.30
2019-02-21T16:25:31.744Z,21.53
2019-02-21T16:28:00.126Z,21.47
2019-02-21T16:30:28.512Z,21.60
2019-02-21T16:32:56.893Z,22.77
2019-02-21T16:35:27.226Z,20.77
2019-02-21T16:37:55.400Z,24.03
2019-02-21T16:40:23.772Z,23.03
2019-02-21T16:42:52.163Z,23.37
2019-02-21T16:45:21.870Z,24.27
2019-02-21T16:47:50.322Z,25.30
2019-02-21T16:50:29.272Z,23.90
2019-02-21T16:52:48.878Z,24.23
2019-02-21T16:55:20.040Z,21.83
2019-02-21T16:57:48.513Z,23.77
2019-02-21T17:00:18.547Z,25.30
2019-02-21T17:02:46.930Z,26.77
2019-02-21T17:05:15.792Z,27.00
2019-02-21T17:07:44.340Z,28.33
2019-02-21T17:10:17.356Z,26.80
2019-02-21T17:12:45.740Z,26.43
2019-02-21T17:15:15.872Z,28.97
2019-02-21T17:17:44.247Z,27.57
2019-02-21T17:20:20.387Z,28.50
2019-02-21T17:22:48.786Z,29.67
2019-02-21T17:25:17.236Z,28.13
2019-02-21T17:27:46.003Z,29.20
2019-02-21T17:30:18.506Z,27.77
2019-02-21T17:32:46.899Z,26.33
2019-02-21T17:35:15.451Z,28.50
2019-02-21T17:37:43.971Z,28.97
2019-02-21T17:40:15.374Z,28.30
2019-02-21T17:42:43.771Z,28.10
2019-02-21T17:45:12.900Z,29.00
2019-02-21T17:47:41.301Z,28.00
2019-02-21T17:50:11.828Z,28.47
2019-02-21T17:52:40.227Z,26.57
2019-02-21T17:55:10.261Z,28.70
2019-02-21T17:57:38.639Z,29.77
2019-02-21T18:00:12.568Z,29.10
2019-02-21T18:02:40.956Z,28.20
2019-02-21T18:05:10.496Z,28.57
2019-02-21T18:07:38.890Z,30.17
2019-02-21T18:10:10.364Z,27.27
2019-02-21T18:12:38.747Z,27.83
2019-02-21T18:15:09.284Z,27.93
2019-02-21T18:17:37.668Z,28.17
2019-02-21T18:20:08.932Z,28.47
2019-02-21T18:22:37.316Z,26.23
2019-02-21T18:25:21.203Z,27.03
2019-02-21T18:27:49.588Z,26.97
2019-02-21T18:30:18.052Z,27.50
2019-02-21T18:32:46.435Z,28.57
2019-02-21T18:35:14.861Z,29.13
2019-02-21T18:37:47.432Z,28.13
2019-02-21T18:40:18.388Z,30.90
2019-02-21T18:42:46.480Z,29.20
2019-02-21T18:45:14.938Z,27.90
2019-02-21T18:47:43.332Z,31.20
2019-02-21T18:50:13.455Z,29.50
2019-02-21T18:52:41.864Z,29.23
2019-02-21T18:55:10.691Z,29.17
2019-02-21T18:57:39.085Z,31.10
2019-02-21T19:00:13.600Z,30.83
2019-02-21T19:02:42.003Z,33.53
2019-02-21T19:05:10.395Z,30.00
2019-02-21T19:07:38.787Z,34.07
2019-02-21T19:10:15.643Z,33.33
2019-02-21T19:12:44.035Z,33.53
2019-02-21T19:15:14.062Z,32.67
2019-02-21T19:17:42.448Z,32.43
2019-02-21T19:20:18.580Z,29.70
2019-02-21T19:22:46.964Z,32.27
2019-02-21T19:25:17.499Z,32.63
2019-02-21T19:27:45.961Z,30.40
2019-02-21T19:30:29.225Z,28.83
2019-02-21T19:32:57.778Z,29.87
2019-02-21T19:35:26.340Z,30.87
2019-02-21T19:37:54.738Z,29.70
2019-02-21T19:40:23.124Z,30.07
2019-02-21T19:42:51.511Z,27.10
2019-02-21T19:45:19.896Z,27.00
2019-02-21T19:47:48.294Z,28.80
2019-02-21T19:50:16.671Z,26.47
2019-02-21T19:52:45.136Z,26.13
2019-02-21T19:55:13.679Z,26.50
2019-02-21T19:57:42.072Z,27.63
2019-02-21T20:00:21.028Z,28.67
2019-02-21T20:02:49.411Z,22.77
2019-02-21T20:05:17.881Z,26.80
2019-02-21T20:07:46.347Z,25.90
2019-02-21T20:10:15.112Z,27.00
2019-02-21T20:12:43.563Z,27.33
2019-02-21T20:15:12.391Z,27.17
2019-02-21T20:17:40.916Z,25.07
2019-02-21T20:20:18.292Z,26.33
2019-02-21T20:22:46.763Z,24.80
2019-02-21T20:25:15.279Z,24.67
2019-02-21T20:27:43.739Z,24.93
2019-02-21T20:30:14.861Z,22.40
2019-02-21T20:32:43.340Z,23.90
2019-02-21T20:35:11.800Z,24.60
2019-02-21T20:37:40.187Z,25.70
2019-02-21T20:40:10.575Z,25.97
2019-02-21T20:42:38.980Z,25.33
2019-02-21T20:45:10.547Z,24.10
2019-02-21T20:47:38.944Z,23.17
2019-02-21T20:50:09.388Z,25.23
2019-02-21T20:52:37.771Z,25.27
2019-02-21T20:55:08.380Z,24.90
2019-02-21T20:57:36.840Z,27.97
2019-02-21T21:00:10.792Z,30.07
2019-02-21T21:02:39.184Z,26.03
2019-02-21T21:05:07.752Z,25.30
2019-02-21T21:07:36.155Z,27.50
2019-02-21T21:10:09.136Z,26.93
2019-02-21T21:12:37.529Z,27.17
2019-02-21T21:15:09.581Z,27.27
2019-02-21T21:17:38.223Z,29.20
2019-02-21T21:20:16.603Z,29.50
2019-02-21T21:22:39.360Z,28.87
2019-02-21T21:25:10.689Z,31.10
2019-02-21T21:27:39.080Z,31.93
2019-02-21T21:30:10.516Z,28.67
2019-02-21T21:32:38.892Z,28.70
2019-02-21T21:35:07.364Z,30.73
2019-02-21T21:37:35.747Z,31.23
2019-02-21T21:40:06.651Z,31.27
2019-02-21T21:42:35.047Z,30.03
2019-02-21T21:45:04.196Z,29.90
2019-02-21T21:47:32.579Z,31.03
2019-02-21T21:50:00.981Z,30.40
2019-02-21T21:52:29.364Z,29.90
2019-02-21T21:54:57.763Z,29.83
2019-02-21T21:57:26.148Z,29.77
2019-02-21T21:59:54.539Z,30.37
2019-02-21T22:02:22.928Z,29.53
2019-02-21T22:04:51.319Z,29.70
2019-02-21T22:07:19.707Z,28.97
2019-02-21T22:09:48.096Z,29.60
2019-02-21T22:12:16.546Z,28.83
2019-02-21T22:14:44.943Z,29.27
2019-02-21T22:17:13.324Z,29.07
2019-02-21T22:19:41.731Z,28.47
2019-02-21T22:22:10.103Z,30.47
2019-02-21T22:24:38.496Z,28.07
2019-02-21T22:27:06.876Z,29.50
2019-02-21T22:29:35.259Z,30.03
2019-02-21T22:32:03.653Z,28.40
2019-02-21T22:34:32.031Z,30.17
2019-02-21T22:37:00.433Z,30.43
2019-02-21T22:39:28.824Z,29.07
2019-02-21T22:41:57.199Z,28.23
2019-02-21T22:44:25.591Z,30.17
2019-02-21T22:46:53.972Z,28.87
2019-02-21T22:49:22.363Z,28.30
2019-02-21T22:51:50.747Z,30.27
2019-02-21T22:54:19.132Z,29.77
2019-02-21T22:56:47.523Z,28.57
2019-02-21T22:59:15.907Z,28.30
2019-02-21T23:01:44.367Z,29.63
2019-02-21T23:04:15.887Z,29.10
2019-02-21T23:06:59.257Z,27.87
2019-02-21T23:09:28.316Z,28.90
2019-02-21T23:11:56.844Z,28.87
2019-02-21T23:14:25.251Z,28.33
2019-02-21T23:16:53.649Z,27.77
2019-02-21T23:19:24.150Z,29.83
2019-02-21T23:21:52.143Z,29.37
2019-02-21T23:24:20.536Z,27.73
2019-02-21T23:26:48.920Z,28.57
2019-02-21T23:29:17.314Z,27.87
2019-02-21T23:31:45.708Z,28.33
2019-02-21T23:34:15.724Z,28.93
2019-02-21T23:36:44.479Z,28.97
2019-02-21T23:39:12.870Z,30.07
2019-02-21T23:41:41.264Z,30.83
2019-02-21T23:44:09.648Z,30.47
2019-02-21T23:46:38.036Z,30.47
2019-02-21T23:49:06.424Z,29.13
2019-02-21T23:51:34.811Z,30.27
2019-02-21T23:54:03.541Z,30.90
2019-02-21T23:56:31.967Z,30.60
2019-02-21T23:59:00.351Z,31.47
